createdAt,value
2019-05-29T00:01:10.516Z,9.20
2019-05-29T00:03:34.311Z,9.20
2019-05-29T00:06:00.703Z,9.20
2019-05-29T00:08:27.031Z,9.20
2019-05-29T00:10:53.303Z,9.20
2019-05-29T00:13:19.803Z,9.30
2019-05-29T00:15:46.056Z,9.20
2019-05-29T00:18:12.513Z,9.30
2019-05-29T00:20:39.349Z,9.30
2019-05-29T00:23:06.444Z,9.30
2019-05-29T00:25:32.850Z,9.30
2019-05-29T00:27:59.565Z,9.30
2019-05-29T00:30:26.026Z,9.30
2019-05-29T00:32:52.675Z,9.30
2019-05-29T00:35:18.936Z,9.30
2019-05-29T00:37:45.876Z,9.40
2019-05-29T00:40:13.267Z,9.30
2019-05-29T00:42:42.939Z,9.30
2019-05-29T00:45:09.603Z,9.30
2019-05-29T00:47:36.418Z,9.30
2019-05-29T00:50:04.949Z,9.30
2019-05-29T00:52:31.293Z,9.30
2019-05-29T00:54:57.731Z,9.20
2019-05-29T00:57:24.014Z,9.20
2019-05-29T00:59:50.378Z,9.20
2019-05-29T01:02:17.882Z,9.10
2019-05-29T01:04:44.555Z,9.10
2019-05-29T01:07:12.186Z,9.10
2019-05-29T01:09:38.568Z,9.00
2019-05-29T01:12:05.028Z,9.00
2019-05-29T01:14:31.401Z,9.00
2019-05-29T01:16:57.755Z,8.90
2019-05-29T01:19:25.022Z,8.80
2019-05-29T01:21:54.078Z,8.90
2019-05-29T01:24:20.687Z,8.80
2019-05-29T01:26:47.315Z,8.90
2019-05-29T01:29:14.934Z,8.90
2019-05-29T01:31:41.303Z,8.90
2019-05-29T01:34:07.602Z,8.90
2019-05-29T01:36:33.978Z,8.90
2019-05-29T01:39:00.349Z,8.90
2019-05-29T01:41:27.602Z,8.90
2019-05-29T01:43:53.933Z,8.90
2019-05-29T01:46:21.509Z,9.00
2019-05-29T01:48:47.863Z,8.90
2019-05-29T01:51:15.377Z,9.00
2019-05-29T01:53:41.945Z,9.00
2019-05-29T01:56:08.237Z,9.00
2019-05-29T01:58:34.514Z,9.00
2019-05-29T02:01:00.903Z,9.00
2019-05-29T02:03:28.226Z,9.00
2019-05-29T02:05:54.999Z,9.00
2019-05-29T02:08:22.138Z,9.00
2019-05-29T02:10:48.527Z,9.00
2019-05-29T02:13:15.164Z,9.00
2019-05-29T02:15:41.559Z,9.00
2019-05-29T02:18:07.891Z,9.00
2019-05-29T02:20:35.522Z,9.00
2019-05-29T02:23:01.837Z,9.00
2019-05-29T02:25:28.415Z,9.00
2019-05-29T02:27:54.979Z,9.00
2019-05-29T02:30:23.541Z,9.00
2019-05-29T02:32:49.810Z,8.90
2019-05-29T02:35:17.774Z,8.90
2019-05-29T02:37:44.630Z,8.90
2019-05-29T02:40:11.264Z,8.80
2019-05-29T02:42:37.720Z,8.80
2019-05-29T02:45:06.048Z,8.80
2019-05-29T02:47:32.303Z,8.80
2019-05-29T02:49:58.820Z,8.80
2019-05-29T02:52:26.322Z,8.70
2019-05-29T02:54:52.972Z,8.80
2019-05-29T02:57:20.733Z,8.80
2019-05-29T02:59:47.482Z,8.80
2019-05-29T03:02:13.830Z,8.80
2019-05-29T03:04:40.102Z,8.80
2019-05-29T03:07:06.686Z,8.80
2019-05-29T03:09:33.273Z,8.80
2019-05-29T03:12:00.426Z,8.80
2019-05-29T03:14:27.306Z,8.80
2019-05-29T03:16:53.726Z,8.80
2019-05-29T03:19:20.128Z,8.80
2019-05-29T03:21:46.576Z,8.80
2019-05-29T03:24:12.840Z,8.80
2019-05-29T03:26:39.075Z,8.80
2019-05-29T03:29:05.669Z,8.80
2019-05-29T03:31:41.754Z,8.90
2019-05-29T03:34:00.447Z,8.90
2019-05-29T03:36:28.761Z,8.90
2019-05-29T03:38:55.712Z,8.90
2019-05-29T03:41:22.139Z,8.90
2019-05-29T03:43:48.604Z,8.90
2019-05-29T03:46:29.755Z,8.90
2019-05-29T03:48:43.364Z,8.90
2019-05-29T03:51:09.705Z,8.90
2019-05-29T03:53:38.232Z,8.90
2019-05-29T03:56:04.202Z,8.90
2019-05-29T03:58:31.029Z,8.90
2019-05-29T04:00:58.947Z,9.00
2019-05-29T04:03:26.929Z,9.00
2019-05-29T04:05:53.308Z,9.00
2019-05-29T04:08:19.828Z,9.00
2019-05-29T04:10:46.160Z,9.00
2019-05-29T04:13:12.557Z,9.00
2019-05-29T04:15:39.771Z,9.00
2019-05-29T04:18:07.110Z,9.00
2019-05-29T04:20:33.964Z,9.00
2019-05-29T04:23:03.312Z,9.00
2019-05-29T04:25:36.040Z,9.00
2019-05-29T04:28:03.841Z,9.00
2019-05-29T04:30:34.169Z,9.10
2019-05-29T04:33:00.746Z,9.00
2019-05-29T04:35:28.324Z,9.10
2019-05-29T04:37:54.961Z,9.10
2019-05-29T04:40:21.320Z,9.10
2019-05-29T04:42:47.940Z,9.10
2019-05-29T04:45:14.535Z,9.10
2019-05-29T04:47:40.868Z,9.10
2019-05-29T04:50:08.148Z,9.10
2019-05-29T04:52:35.928Z,9.10
2019-05-29T04:55:03.528Z,9.10
2019-05-29T04:57:30.839Z,9.10
2019-05-29T04:59:57.238Z,9.10
2019-05-29T05:02:24.046Z,9.10
2019-05-29T05:04:50.519Z,9.20
2019-05-29T05:07:17.120Z,9.20
2019-05-29T05:09:43.391Z,9.20
2019-05-29T05:12:10.600Z,9.30
2019-05-29T05:14:38.265Z,9.30
2019-05-29T05:17:06.400Z,9.30
2019-05-29T05:19:33.889Z,9.30
2019-05-29T05:22:02.231Z,9.30
2019-05-29T05:24:30.074Z,9.40
2019-05-29T05:26:56.959Z,9.40
2019-05-29T05:29:24.098Z,9.40
2019-05-29T05:31:50.765Z,9.40
2019-05-29T05:34:17.241Z,9.50
2019-05-29T05:36:44.299Z,9.50
2019-05-29T05:39:11.736Z,9.50
2019-05-29T05:41:38.995Z,9.60
2019-05-29T05:44:05.464Z,9.60
2019-05-29T05:46:32.954Z,9.70
2019-05-29T05:49:00.149Z,9.70
2019-05-29T05:51:27.187Z,9.70
2019-05-29T05:53:55.342Z,9.70
2019-05-29T05:56:22.521Z,9.80
2019-05-29T05:58:52.630Z,9.70
2019-05-29T06:01:19.839Z,9.70
2019-05-29T06:03:47.074Z,9.80
2019-05-29T06:06:13.562Z,9.80
2019-05-29T06:08:40.245Z,9.90
2019-05-29T06:11:06.574Z,9.90
2019-05-29T06:13:34.138Z,10.00
2019-05-29T06:16:00.743Z,10.00
2019-05-29T06:18:27.088Z,10.10
2019-05-29T06:20:53.460Z,10.10
2019-05-29T06:23:19.710Z,10.20
2019-05-29T06:25:46.053Z,10.20
2019-05-29T06:28:12.451Z,10.30
2019-05-29T06:30:41.243Z,10.40
2019-05-29T06:33:08.240Z,10.50
2019-05-29T06:35:35.748Z,10.60
2019-05-29T06:38:02.153Z,10.60
2019-05-29T06:40:33.762Z,10.70
2019-05-29T06:43:01.574Z,10.80
2019-05-29T06:45:35.827Z,10.80
2019-05-29T06:48:06.118Z,11.00
2019-05-29T06:50:35.205Z,11.20
2019-05-29T06:53:02.840Z,11.40
2019-05-29T06:55:37.793Z,11.60
2019-05-29T06:58:11.489Z,11.80
2019-05-29T07:00:44.757Z,12.00
2019-05-29T07:03:12.424Z,12.30
2019-05-29T07:05:44.662Z,12.40
2019-05-29T07:08:19.243Z,12.50
2019-05-29T07:10:38.628Z,12.60
2019-05-29T07:13:05.467Z,12.70
2019-05-29T07:15:38.611Z,12.60
2019-05-29T07:18:06.953Z,12.70
2019-05-29T07:20:33.419Z,12.70
2019-05-29T07:23:01.890Z,12.70
2019-05-29T07:25:34.291Z,12.70
2019-05-29T07:28:02.967Z,12.70
2019-05-29T07:30:29.928Z,12.80
2019-05-29T07:32:58.461Z,12.80
2019-05-29T07:35:25.478Z,12.90
2019-05-29T07:37:52.786Z,12.90
2019-05-29T07:40:19.515Z,12.80
2019-05-29T07:42:53.603Z,12.80
2019-05-29T07:45:15.015Z,13.00
2019-05-29T07:47:42.594Z,13.00
2019-05-29T07:50:09.633Z,13.10
2019-05-29T07:52:40.687Z,13.30
2019-05-29T07:55:07.791Z,13.40
2019-05-29T07:57:36.646Z,13.50
2019-05-29T08:00:05.632Z,13.70
2019-05-29T08:02:39.335Z,13.80
2019-05-29T08:05:08.992Z,14.00
2019-05-29T08:07:47.601Z,14.10
2019-05-29T08:10:15.429Z,14.30
2019-05-29T08:12:46.817Z,14.40
2019-05-29T08:15:15.106Z,14.50
2019-05-29T08:17:44.083Z,14.60
2019-05-29T08:20:14.646Z,14.70
2019-05-29T08:22:48.416Z,14.80
2019-05-29T08:25:15.126Z,14.80
2019-05-29T08:27:42.970Z,14.80
2019-05-29T08:30:14.302Z,15.40
2019-05-29T08:32:40.929Z,15.90
2019-05-29T08:35:10.194Z,16.40
2019-05-29T08:37:45.074Z,16.50
2019-05-29T08:40:13.023Z,16.70
2019-05-29T08:42:40.953Z,16.80
2019-05-29T08:45:09.592Z,16.70
2019-05-29T08:47:37.497Z,16.70
2019-05-29T08:50:19.360Z,16.50
2019-05-29T08:52:41.777Z,16.30
2019-05-29T08:55:08.902Z,16.30
2019-05-29T08:57:36.299Z,16.20
2019-05-29T09:00:08.834Z,16.20
2019-05-29T09:02:35.394Z,16.20
2019-05-29T09:05:04.585Z,16.30
2019-05-29T09:07:31.031Z,16.40
2019-05-29T09:09:57.412Z,16.40
2019-05-29T09:12:24.081Z,16.40
2019-05-29T09:14:50.526Z,16.30
2019-05-29T09:17:18.412Z,16.30
2019-05-29T09:19:45.160Z,16.30
2019-05-29T09:22:22.839Z,16.30
2019-05-29T09:24:49.383Z,16.30
2019-05-29T09:27:17.009Z,16.20
2019-05-29T09:29:43.536Z,16.10
2019-05-29T09:32:13.470Z,16.10
2019-05-29T09:34:40.679Z,16.00
2019-05-29T09:37:07.322Z,15.90
2019-05-29T09:39:40.260Z,15.80
2019-05-29T09:42:06.670Z,15.80
2019-05-29T09:44:38.672Z,15.80
2019-05-29T09:47:03.046Z,15.80
2019-05-29T09:49:29.671Z,15.70
2019-05-29T09:51:56.336Z,15.70
2019-05-29T09:54:22.903Z,15.60
2019-05-29T09:56:49.503Z,15.50
2019-05-29T09:59:16.789Z,15.40
2019-05-29T10:01:43.493Z,15.40
2019-05-29T10:04:12.009Z,15.40
2019-05-29T10:06:38.537Z,15.30
2019-05-29T10:09:07.235Z,15.30
2019-05-29T10:11:34.077Z,15.40
2019-05-29T10:14:00.687Z,15.50
2019-05-29T10:16:27.719Z,15.60
2019-05-29T10:18:57.697Z,15.70
2019-05-29T10:21:38.678Z,15.90
2019-05-29T10:23:52.420Z,16.00
2019-05-29T10:26:18.899Z,16.20
2019-05-29T10:29:02.573Z,16.40
2019-05-29T10:31:15.851Z,16.60
2019-05-29T10:33:43.855Z,16.80
2019-05-29T10:36:13.727Z,17.00
2019-05-29T10:38:40.136Z,17.10
2019-05-29T10:41:07.535Z,17.30
2019-05-29T10:43:35.084Z,17.60
2019-05-29T10:46:01.737Z,17.70
2019-05-29T10:48:28.103Z,17.70
2019-05-29T10:50:55.445Z,17.60
2019-05-29T10:53:22.187Z,17.10
2019-05-29T10:55:55.645Z,16.50
2019-05-29T10:58:22.155Z,15.90
2019-05-29T11:00:49.162Z,15.30
2019-05-29T11:03:17.517Z,14.90
2019-05-29T11:05:45.630Z,14.50
2019-05-29T11:08:13.101Z,14.20
2019-05-29T11:10:46.014Z,14.00
2019-05-29T11:13:14.448Z,13.80
2019-05-29T11:15:40.935Z,13.70
2019-05-29T11:18:07.340Z,13.60
2019-05-29T11:20:33.782Z,13.60
2019-05-29T11:23:13.335Z,13.70
2019-05-29T11:25:40.564Z,13.80
2019-05-29T11:28:09.057Z,14.00
2019-05-29T11:30:36.444Z,14.20
2019-05-29T11:33:13.398Z,14.40
2019-05-29T11:35:57.753Z,14.60
2019-05-29T11:38:15.092Z,14.60
2019-05-29T11:40:43.827Z,14.70
2019-05-29T11:43:09.893Z,14.60
2019-05-29T11:45:38.548Z,14.50
2019-05-29T11:48:05.482Z,14.20
2019-05-29T11:50:32.974Z,14.00
2019-05-29T11:52:59.419Z,13.70
2019-05-29T11:55:27.332Z,13.70
2019-05-29T11:57:54.078Z,13.70
2019-05-29T12:00:21.537Z,13.80
2019-05-29T12:02:48.274Z,14.00
2019-05-29T12:05:17.387Z,14.10
2019-05-29T12:07:48.296Z,14.20
2019-05-29T12:10:22.884Z,14.40
2019-05-29T12:12:51.632Z,14.60
2019-05-29T12:15:18.871Z,14.90
2019-05-29T12:17:46.529Z,15.20
2019-05-29T12:20:27.227Z,15.50
2019-05-29T12:22:41.620Z,15.60
2019-05-29T12:25:08.820Z,15.70
2019-05-29T12:27:36.375Z,15.70
2019-05-29T12:30:55.141Z,15.60
2019-05-29T12:33:24.133Z,15.30
2019-05-29T12:35:50.678Z,15.00
2019-05-29T12:38:17.087Z,14.80
2019-05-29T12:40:44.663Z,14.60
2019-05-29T12:43:26.024Z,14.50
2019-05-29T12:45:44.448Z,14.40
2019-05-29T12:48:13.974Z,14.40
2019-05-29T12:50:38.940Z,14.30
2019-05-29T12:53:05.848Z,14.30
2019-05-29T12:55:32.230Z,14.40
2019-05-29T12:57:59.965Z,14.40
2019-05-29T13:00:26.694Z,14.40
2019-05-29T13:02:54.366Z,14.50
2019-05-29T13:05:21.203Z,14.50
2019-05-29T13:07:47.846Z,14.40
2019-05-29T13:10:29.492Z,14.40
2019-05-29T13:12:43.737Z,14.40
2019-05-29T13:15:12.943Z,14.40
2019-05-29T13:17:39.283Z,14.40
2019-05-29T13:20:20.389Z,14.40
2019-05-29T13:22:36.089Z,14.30
2019-05-29T13:25:05.422Z,14.20
2019-05-29T13:27:31.789Z,14.10
2019-05-29T13:30:00.022Z,14.00
2019-05-29T13:32:26.238Z,14.00
2019-05-29T13:34:52.541Z,14.00
2019-05-29T13:37:18.796Z,14.00
2019-05-29T13:39:45.245Z,14.00
2019-05-29T13:42:12.221Z,14.10
2019-05-29T13:44:39.068Z,14.10
2019-05-29T13:47:06.231Z,14.20
2019-05-29T13:49:32.774Z,14.30
2019-05-29T13:51:59.208Z,14.40
2019-05-29T13:54:26.646Z,14.50
2019-05-29T13:56:53.095Z,14.50
2019-05-29T13:59:19.726Z,14.60
2019-05-29T14:01:48.436Z,14.70
2019-05-29T14:04:14.283Z,14.80
2019-05-29T14:06:40.519Z,14.80
2019-05-29T14:09:07.716Z,14.80
2019-05-29T14:11:35.739Z,14.90
2019-05-29T14:14:04.152Z,14.90
2019-05-29T14:16:31.977Z,15.00
2019-05-29T14:18:58.604Z,15.00
2019-05-29T14:21:25.074Z,14.90
2019-05-29T14:23:52.446Z,15.00
2019-05-29T14:26:19.191Z,15.10
2019-05-29T14:28:45.595Z,15.30
2019-05-29T14:31:12.277Z,15.40
2019-05-29T14:33:46.936Z,15.50
2019-05-29T14:36:13.638Z,15.60
2019-05-29T14:38:39.972Z,15.70
2019-05-29T14:41:08.162Z,15.80
2019-05-29T14:43:34.531Z,16.00
2019-05-29T14:46:01.883Z,16.10
2019-05-29T14:48:28.356Z,16.10
2019-05-29T14:50:55.728Z,16.10
2019-05-29T14:53:22.408Z,16.10
2019-05-29T14:55:48.870Z,16.10
2019-05-29T14:58:16.358Z,16.20
2019-05-29T15:00:43.451Z,16.30
2019-05-29T15:03:11.512Z,16.70
2019-05-29T15:05:38.055Z,16.80
2019-05-29T15:08:05.682Z,17.00
2019-05-29T15:10:33.366Z,17.30
2019-05-29T15:12:59.739Z,17.60
2019-05-29T15:15:26.567Z,17.80
2019-05-29T15:17:52.928Z,17.80
2019-05-29T15:20:19.614Z,17.70
2019-05-29T15:22:46.875Z,17.50
2019-05-29T15:25:23.742Z,17.30
2019-05-29T15:27:45.199Z,17.30
2019-05-29T15:30:19.749Z,17.40
2019-05-29T15:32:40.738Z,17.40
2019-05-29T15:35:14.512Z,17.60
2019-05-29T15:37:42.902Z,17.60
2019-05-29T15:40:10.880Z,17.50
2019-05-29T15:42:47.641Z,17.30
2019-05-29T15:45:15.950Z,17.20
2019-05-29T15:47:42.347Z,17.20
2019-05-29T15:50:11.475Z,17.30
2019-05-29T15:52:38.443Z,17.40
2019-05-29T15:55:22.444Z,17.50
2019-05-29T15:57:36.640Z,17.60
2019-05-29T16:00:09.053Z,17.80
2019-05-29T16:02:36.227Z,18.00
2019-05-29T16:05:04.816Z,18.10
2019-05-29T16:07:40.599Z,18.20
2019-05-29T16:10:08.221Z,18.40
2019-05-29T16:12:34.613Z,18.40
2019-05-29T16:15:11.246Z,18.40
2019-05-29T16:17:42.936Z,18.40
2019-05-29T16:20:10.655Z,18.10
2019-05-29T16:22:37.158Z,17.80
2019-05-29T16:25:07.214Z,17.60
2019-05-29T16:27:35.183Z,17.40
2019-05-29T16:30:07.683Z,17.30
2019-05-29T16:32:36.489Z,17.30
2019-05-29T16:35:06.182Z,17.50
2019-05-29T16:37:34.956Z,17.30
2019-05-29T16:40:09.168Z,17.20
2019-05-29T16:42:35.694Z,17.00
2019-05-29T16:45:05.414Z,16.80
2019-05-29T16:47:33.160Z,16.80
2019-05-29T16:50:00.508Z,16.70
2019-05-29T16:52:27.006Z,16.60
2019-05-29T16:54:54.398Z,16.50
2019-05-29T16:57:21.236Z,16.40
2019-05-29T16:59:48.062Z,16.20
2019-05-29T17:02:15.656Z,16.20
2019-05-29T17:04:42.071Z,16.20
2019-05-29T17:07:08.494Z,16.20
2019-05-29T17:09:36.107Z,16.30
2019-05-29T17:12:02.678Z,16.40
2019-05-29T17:14:29.080Z,16.40
2019-05-29T17:17:02.239Z,16.40
2019-05-29T17:19:37.916Z,16.40
2019-05-29T17:22:06.960Z,16.30
2019-05-29T17:24:33.712Z,16.20
2019-05-29T17:27:02.204Z,16.10
2019-05-29T17:29:30.868Z,16.00
2019-05-29T17:32:01.665Z,16.00
2019-05-29T17:34:28.595Z,16.10
2019-05-29T17:36:54.943Z,16.20
2019-05-29T17:39:21.429Z,16.30
2019-05-29T17:41:48.209Z,16.40
2019-05-29T17:44:15.409Z,16.40
2019-05-29T17:46:45.995Z,16.50
2019-05-29T17:49:12.348Z,16.40
2019-05-29T17:51:39.095Z,16.30
2019-05-29T17:54:05.852Z,16.20
2019-05-29T17:56:36.706Z,16.10
2019-05-29T17:59:01.602Z,15.90
2019-05-29T18:01:30.747Z,15.70
2019-05-29T18:03:56.835Z,15.60
2019-05-29T18:06:24.573Z,15.50
2019-05-29T18:08:51.050Z,15.40
2019-05-29T18:11:18.813Z,15.30
2019-05-29T18:13:46.823Z,15.20
2019-05-29T18:16:14.184Z,15.10
2019-05-29T18:18:40.687Z,15.00
2019-05-29T18:21:07.156Z,14.90
2019-05-29T18:23:34.539Z,14.80
2019-05-29T18:26:01.003Z,14.70
2019-05-29T18:28:33.144Z,14.60
2019-05-29T18:31:01.795Z,14.50
2019-05-29T18:33:28.993Z,14.40
2019-05-29T18:35:56.849Z,14.30
2019-05-29T18:38:24.512Z,14.20
2019-05-29T18:40:50.901Z,14.10
2019-05-29T18:43:26.680Z,14.00
2019-05-29T18:45:53.344Z,13.90
2019-05-29T18:48:21.097Z,13.70
2019-05-29T18:50:48.715Z,13.60
2019-05-29T18:53:15.389Z,13.50
2019-05-29T18:55:45.408Z,13.40
2019-05-29T18:58:22.106Z,13.20
2019-05-29T19:00:48.701Z,13.10
2019-05-29T19:03:23.453Z,12.90
2019-05-29T19:05:50.316Z,12.80
2019-05-29T19:08:17.049Z,12.60
2019-05-29T19:10:43.448Z,12.50
2019-05-29T19:13:09.827Z,12.40
2019-05-29T19:15:36.191Z,12.30
2019-05-29T19:18:02.752Z,12.10
2019-05-29T19:20:30.395Z,12.00
2019-05-29T19:22:57.021Z,11.80
2019-05-29T19:25:24.502Z,11.70
2019-05-29T19:27:51.170Z,11.60
2019-05-29T19:30:17.947Z,11.40
2019-05-29T19:32:44.701Z,11.30
2019-05-29T19:35:11.344Z,11.10
2019-05-29T19:37:39.159Z,11.00
2019-05-29T19:40:07.058Z,10.90
2019-05-29T19:42:34.337Z,10.70
2019-05-29T19:45:08.004Z,10.70
2019-05-29T19:47:35.874Z,10.50
2019-05-29T19:50:04.210Z,10.40
2019-05-29T19:52:31.900Z,10.30
2019-05-29T19:54:58.248Z,10.20
2019-05-29T19:57:25.840Z,10.00
2019-05-29T19:59:53.778Z,10.00
2019-05-29T20:02:21.360Z,9.80
2019-05-29T20:04:55.363Z,9.70
2019-05-29T20:07:28.965Z,9.60
2019-05-29T20:09:55.777Z,9.60
2019-05-29T20:12:23.044Z,9.50
2019-05-29T20:14:50.318Z,9.40
2019-05-29T20:17:21.382Z,9.30
2019-05-29T20:19:47.909Z,9.20
2019-05-29T20:22:14.536Z,9.20
2019-05-29T20:24:40.867Z,9.20
2019-05-29T20:27:08.271Z,9.10
2019-05-29T20:29:34.548Z,9.00
2019-05-29T20:32:05.450Z,8.90
2019-05-29T20:34:32.751Z,8.80
2019-05-29T20:36:59.500Z,8.70
2019-05-29T20:39:32.995Z,8.70
2019-05-29T20:41:59.953Z,8.60
2019-05-29T20:44:26.290Z,8.50
2019-05-29T20:46:52.660Z,8.50
2019-05-29T20:49:19.422Z,8.40
2019-05-29T20:51:47.058Z,8.30
2019-05-29T20:54:13.386Z,8.20
2019-05-29T20:56:41.958Z,8.20
2019-05-29T20:59:10.318Z,8.10
2019-05-29T21:01:44.242Z,8.00
2019-05-29T21:04:07.170Z,7.90
2019-05-29T21:06:34.569Z,7.90
2019-05-29T21:09:05.132Z,7.80
2019-05-29T21:11:31.709Z,7.70
2019-05-29T21:13:58.414Z,7.70
2019-05-29T21:16:25.000Z,7.60
2019-05-29T21:18:55.397Z,7.50
2019-05-29T21:21:21.663Z,7.50
2019-05-29T21:23:48.438Z,7.40
2019-05-29T21:26:14.733Z,7.40
2019-05-29T21:28:47.010Z,7.30
2019-05-29T21:31:12.042Z,7.20
2019-05-29T21:33:42.503Z,7.20
2019-05-29T21:36:07.480Z,7.10
2019-05-29T21:38:44.730Z,7.10
2019-05-29T21:41:12.327Z,7.00
2019-05-29T21:43:47.027Z,7.00
2019-05-29T21:46:14.748Z,6.90
2019-05-29T21:48:43.373Z,6.90
2019-05-29T21:51:10.044Z,6.80
2019-05-29T21:53:41.296Z,6.70
2019-05-29T21:56:07.804Z,6.70
2019-05-29T21:58:37.485Z,6.60
2019-05-29T22:01:04.692Z,6.60
2019-05-29T22:03:34.213Z,6.60
2019-05-29T22:06:00.465Z,6.50
2019-05-29T22:08:28.009Z,6.50
2019-05-29T22:10:55.493Z,6.40
2019-05-29T22:13:22.315Z,6.40
2019-05-29T22:15:48.933Z,6.40
2019-05-29T22:18:15.332Z,6.30
2019-05-29T22:20:46.843Z,6.30
2019-05-29T22:23:13.206Z,6.20
2019-05-29T22:25:39.438Z,6.20
2019-05-29T22:28:05.793Z,6.20
2019-05-29T22:30:32.095Z,6.20
2019-05-29T22:32:59.474Z,6.30
2019-05-29T22:35:26.148Z,6.20
2019-05-29T22:37:53.463Z,6.10
2019-05-29T22:40:20.287Z,6.10
2019-05-29T22:42:46.989Z,6.10
2019-05-29T22:45:13.570Z,6.10
2019-05-29T22:47:40.115Z,6.00
2019-05-29T22:50:06.751Z,6.00
2019-05-29T22:52:35.334Z,5.90
2019-05-29T22:55:02.438Z,5.90
2019-05-29T22:57:30.947Z,5.80
2019-05-29T22:59:58.300Z,5.80
2019-05-29T23:02:24.886Z,5.70
2019-05-29T23:04:52.154Z,5.70
2019-05-29T23:07:18.810Z,5.70
2019-05-29T23:09:45.410Z,5.60
2019-05-29T23:12:12.387Z,5.60
2019-05-29T23:14:42.538Z,5.60
2019-05-29T23:17:11.034Z,5.50
2019-05-29T23:19:37.424Z,5.50
2019-05-29T23:22:09.894Z,5.50
2019-05-29T23:24:36.184Z,5.50
2019-05-29T23:27:03.097Z,5.40
2019-05-29T23:29:29.428Z,5.40
2019-05-29T23:31:56.813Z,5.30
2019-05-29T23:34:23.234Z,5.30
2019-05-29T23:36:49.926Z,5.20
2019-05-29T23:39:16.331Z,5.20
2019-05-29T23:41:48.592Z,5.20
2019-05-29T23:44:15.290Z,5.20
2019-05-29T23:46:47.655Z,5.20
2019-05-29T23:49:24.872Z,5.20
2019-05-29T23:51:53.510Z,5.20
2019-05-29T23:54:20.061Z,5.10
2019-05-29T23:56:46.313Z,5.10
2019-05-29T23:59:12.695Z,5.10
